Rodney, IA (51051)

10:10 AM CDT on August 30, 2014 (GMT -0500)
The Danbury Review | Change Station
CLOSE
Current Station
Personal Weather Station
Location: Danbury, IA
Elevation: 1162 ft
Nearby Weather Stations

Elev 1162 ft 42.24 °N, 95.72 °W | Updated 18 seconds ago

Overcast
Overcast
65.8 °F
Feels Like 65.8 °F
N
3.0
Wind Variable Wind from WNW
Gusts 5.0 mph

Today
High -- | Low -- °F
--% Chance of Precip.
Yesterday
High -- | Low -- °F
Precip. -- in
6:47 AM 8:00 PM
Waxing Crescent, 22% visible
Pressure 29.93 in
Visibility 10.0 miles
Clouds Overcast 1000 ft
Dew Point 65 °F
Humidity 96%
Rainfall -999.00 in
Snow Depth Not available.
UV 1 out of 12
Pollen 9.20 out of 12
Air Quality Not available.
Flu Activity Not available.
METAR KSUX 301452Z 31008KT 10SM OVC010 18/16 A2994 RMK AO2 SLP134 T01830156 50010

More Conditions Fewer Conditions

Pressure 29.93 in
Visibility 10.0 miles
Clouds Overcast 1000 ft
Dew Point 65 °F
Humidity 96%
Rainfall -999.00 in
Snow Depth Not available.
UV 1 out of 12
Pollen 9.20 out of 12
Air Quality Not available.
Flu Activity Not available.
METAR KSUX 301452Z 31008KT 10SM OVC010 18/16 A2994 RMK AO2 SLP134 T01830156 50010

More Conditions Fewer Conditions

10-Day Weather Forecast

Almanac

Astronomy

Aug. 30, 2014 Rise Set
Actual Time 6:47 AM CDT 8:00 PM CDT
Civil Twilight 6:18 AM CDT 8:29 PM CDT
Nautical Twilight 5:43 AM CDT 9:04 PM CDT
Astronomical Twilight 5:06 AM CDT 9:40 PM CDT
Moon 11:41 AM CDT 10:29 PM CDT
Length of Visible Light 14h 11m
Length of Day
13h 13m
Tomorrow will be 2m 43s shorter.
Waxing Crescent, 22% of the Moon is Illuminated
Today
Waxing Crescent
Sep 2
First Quarter
Sep 8
Full
Sep 15
Last Quarter
Sep 24
New

Today's Extremes

State Highs State Lows

Community

WunderPhotos

Upload Photos

1,748,543 photos uploaded!

WunderBlogs® & News

Nearby

Snow Depth

Station Depth Elevation
No new snow has been reported.

Earthquake Activity

City Distance Mag. Time & Date
No recent earthquake activity has been reported nearby.
Minimum magnitude displayed is 2.5.

Coastal Water Temperatures

Place Temperature
No Stations Reporting

Nearby Weather Stations